Time;durP1;ratioP1;P1;durP2;ratioP2;P2;SDS_P1;SDS_P2;PMS_P1;PMS_P2;Temp;Humidity;BMP_temperature;BMP_pressure;BME280_temperature;BME280_humidity;BME280_pressure;Samples;Min_cycle;Max_cycle;Signal;HPM_P1;HPM_P2
2023/11/19 00:00:54;;;;;;;2.23;1.97;;;;;;;-0.67;100.00;98230.72;6219175;28;20590;-42
2023/11/19 00:03:56;;;;;;;1.70;1.50;;;;;;;-0.66;100.00;98227.09;6219353;28;20203;-40
2023/11/19 00:07:03;;;;;;;2.67;1.83;;;;;;;-0.63;100.00;98228.59;6219541;28;20205;-40
2023/11/19 00:10:09;;;;;;;1.70;1.60;;;;;;;-0.59;100.00;98224.66;6218266;28;20826;-39
2023/11/19 00:13:12;;;;;;;2.57;1.90;;;;;;;-0.56;100.00;98230.41;6219509;28;20336;-40
2023/11/19 00:16:14;;;;;;;2.83;1.90;;;;;;;-0.54;100.00;98219.81;6217836;28;20262;-40
2023/11/19 00:19:16;;;;;;;2.20;2.00;;;;;;;-0.51;100.00;98214.25;6201368;28;20193;-39
2023/11/19 00:22:21;;;;;;;1.70;1.60;;;;;;;-0.47;100.00;98212.97;6201775;28;20684;-41
2023/11/19 00:25:23;;;;;;;3.00;1.80;;;;;;;-0.45;100.00;98202.31;6219327;28;20196;-40
2023/11/19 00:28:25;;;;;;;2.20;1.60;;;;;;;-0.41;100.00;98204.47;6214290;28;20652;-39
2023/11/19 00:31:27;;;;;;;1.70;1.60;;;;;;;-0.37;100.00;98205.78;6218142;28;20229;-39
2023/11/19 00:34:29;;;;;;;2.33;2.00;;;;;;;-0.33;100.00;98219.38;6216122;28;20215;-40
2023/11/19 00:37:32;;;;;;;2.17;1.87;;;;;;;-0.31;100.00;98209.56;6200799;28;20672;-42
2023/11/19 00:40:34;;;;;;;5.13;1.80;;;;;;;-0.31;100.00;98197.28;6200489;28;20203;-40
2023/11/19 00:43:36;;;;;;;4.50;1.70;;;;;;;-0.32;100.00;98190.41;6219008;28;20664;-41
2023/11/19 00:46:39;;;;;;;2.27;1.70;;;;;;;-0.29;100.00;98191.91;6201377;28;20219;-40
2023/11/19 00:49:42;;;;;;;2.00;1.80;;;;;;;-0.26;100.00;98194.19;6200115;28;20212;-41
2023/11/19 00:52:44;;;;;;;3.63;1.90;;;;;;;-0.23;100.00;98191.25;6208928;28;20235;-40
2023/11/19 00:55:47;;;;;;;2.93;1.60;;;;;;;-0.21;100.00;98180.63;6216727;28;20209;-40
2023/11/19 00:58:49;;;;;;;3.67;1.70;;;;;;;-0.17;100.00;98184.56;6218639;28;20692;-41
2023/11/19 01:01:51;;;;;;;2.07;1.87;;;;;;;-0.17;100.00;98179.31;6216924;28;20211;-40
2023/11/19 01:04:53;;;;;;;1.80;1.67;;;;;;;-0.15;100.00;98172.94;6217860;28;20637;-40
2023/11/19 01:07:55;;;;;;;2.10;1.80;;;;;;;-0.12;100.00;98174.41;6218023;28;20200;-40
2023/11/19 01:10:58;;;;;;;1.80;1.70;;;;;;;-0.16;100.00;98166.06;6190301;28;20200;-40
2023/11/19 01:14:01;;;;;;;1.67;1.57;;;;;;;-0.05;100.00;98196.34;6217100;28;20571;-39
2023/11/19 01:17:04;;;;;;;1.40;1.30;;;;;;;-0.05;100.00;98176.25;6217220;28;20671;-40
2023/11/19 01:20:07;;;;;;;3.43;1.67;;;;;;;-0.02;100.00;98175.91;6216979;28;20338;-41
2023/11/19 01:23:09;;;;;;;1.97;1.77;;;;;;;0.04;100.00;98160.53;6197045;28;21102;-42
2023/11/19 01:26:12;;;;;;;1.70;1.50;;;;;;;0.08;100.00;98167.06;6195365;28;20203;-40
2023/11/19 01:29:15;;;;;;;1.50;1.40;;;;;;;0.11;100.00;98161.53;6197389;28;20208;-42
2023/11/19 01:32:20;;;;;;;3.90;1.83;;;;;;;-0.10;100.00;98126.16;6203863;28;20232;-43
2023/11/19 01:35:23;;;;;;;2.00;1.50;;;;;;;0.13;100.00;98149.88;6195514;28;20213;-40
2023/11/19 01:38:28;;;;;;;2.37;1.70;;;;;;;0.20;100.00;98152.69;6204187;28;20204;-41
2023/11/19 01:41:35;;;;;;;2.23;1.70;;;;;;;0.11;100.00;98128.28;6189340;28;20214;-41
2023/11/19 01:44:38;;;;;;;2.93;1.60;;;;;;;0.23;100.00;98141.84;6191604;28;20217;-41
2023/11/19 01:47:40;;;;;;;1.70;1.47;;;;;;;0.23;100.00;98142.66;6193652;28;21153;-41
2023/11/19 01:50:42;;;;;;;1.90;1.70;;;;;;;0.26;100.00;98144.16;6193982;28;20189;-42
2023/11/19 01:53:45;;;;;;;2.00;1.70;;;;;;;0.24;100.00;98133.81;6177117;28;20416;-40
2023/11/19 01:56:47;;;;;;;3.70;2.80;;;;;;;0.32;100.00;98125.16;6190987;28;20213;-41
2023/11/19 01:59:53;;;;;;;3.07;2.70;;;;;;;0.36;100.00;98115.97;6178731;28;20212;-41
2023/11/19 02:02:55;;;;;;;3.50;2.90;;;;;;;0.36;100.00;98112.53;6179897;28;20773;-40
2023/11/19 02:05:59;;;;;;;2.60;2.40;;;;;;;0.35;100.00;98100.44;6179701;28;20571;-40
2023/11/19 02:09:01;;;;;;;2.37;2.17;;;;;;;0.34;100.00;98093.53;6193292;28;20201;-40
2023/11/19 02:12:04;;;;;;;3.03;2.53;;;;;;;0.32;100.00;98093.72;6189020;28;20189;-40
2023/11/19 02:15:07;;;;;;;3.80;2.70;;;;;;;0.34;100.00;98085.66;6192559;28;20203;-40
2023/11/19 02:18:19;;;;;;;2.83;2.50;;;;;;;0.35;100.00;98088.16;6190068;28;20680;-41
2023/11/19 02:21:22;;;;;;;3.27;2.57;;;;;;;0.23;100.00;98066.69;6176100;28;20570;-43
2023/11/19 02:24:28;;;;;;;4.47;3.83;;;;;;;0.32;100.00;98059.63;6192837;28;20713;-40
2023/11/19 02:27:46;;;;;;;4.23;3.80;;;;;;;0.32;100.00;98049.16;6192942;28;20204;-40
2023/11/19 02:30:48;;;;;;;3.60;3.30;;;;;;;0.33;100.00;98042.13;6193680;28;20670;-41
2023/11/19 02:33:50;;;;;;;3.37;2.90;;;;;;;0.18;100.00;98005.31;6197566;28;20460;-39
2023/11/19 02:36:53;;;;;;;4.00;3.13;;;;;;;0.28;100.00;98029.50;6179925;28;20708;-40
2023/11/19 02:39:56;;;;;;;3.23;2.90;;;;;;;0.29;100.00;98030.31;6195850;28;20202;-39
2023/11/19 02:42:58;;;;;;;4.60;3.30;;;;;;;0.29;100.00;98030.31;6197295;28;20551;-40
2023/11/19 02:46:07;;;;;;;3.33;2.97;;;;;;;0.27;100.00;98027.06;6181818;28;20205;-39
2023/11/19 02:49:12;;;;;;;2.70;2.40;;;;;;;0.23;100.00;98013.47;6175998;28;20279;-39
2023/11/19 02:52:15;;;;;;;4.03;3.07;;;;;;;0.21;100.00;98018.91;6197202;28;20193;-39
2023/11/19 02:55:17;;;;;;;4.67;3.00;;;;;;;0.22;100.00;98007.44;6179196;28;20214;-40
2023/11/19 02:58:20;;;;;;;3.70;3.40;;;;;;;0.23;100.00;98001.19;6197292;28;20213;-40
2023/11/19 03:01:33;;;;;;;4.43;3.80;;;;;;;0.25;100.00;98001.06;6168792;28;20739;-41
2023/11/19 03:04:36;;;;;;;4.20;3.80;;;;;;;0.27;100.00;97988.59;6190093;28;20185;-40
2023/11/19 03:07:38;;;;;;;5.40;3.60;;;;;;;0.26;100.00;97976.47;6196504;28;20721;-39
2023/11/19 03:10:40;;;;;;;4.87;3.03;;;;;;;0.25;100.00;97972.22;6197008;28;20220;-39
2023/11/19 03:13:42;;;;;;;3.60;3.17;;;;;;;0.23;100.00;97961.91;6195691;28;20676;-40
2023/11/19 03:16:47;;;;;;;4.40;3.60;;;;;;;0.22;100.00;97954.22;6196818;28;20209;-39
2023/11/19 03:19:49;;;;;;;3.77;3.37;;;;;;;0.16;100.00;97944.41;6195797;28;20292;-42
2023/11/19 03:22:52;;;;;;;3.73;3.37;;;;;;;0.02;100.00;97914.50;6196918;28;20197;-41
2023/11/19 03:25:55;;;;;;;6.60;3.50;;;;;;;0.22;100.00;97936.69;6196138;28;20235;-42
2023/11/19 03:28:57;;;;;;;4.23;3.70;;;;;;;0.25;100.00;97938.97;6194515;28;20204;-40
2023/11/19 03:31:59;;;;;;;3.47;3.07;;;;;;;0.20;100.00;97920.34;6189499;28;20229;-41
2023/11/19 03:35:04;;;;;;;4.20;3.43;;;;;;;0.21;100.00;97937.69;6189581;28;20225;-40
2023/11/19 03:38:06;;;;;;;4.27;3.47;;;;;;;0.22;100.00;97934.06;6220423;28;20193;-40
2023/11/19 03:41:15;;;;;;;4.77;3.80;;;;;;;0.22;100.00;97936.69;6212119;28;20662;-40
2023/11/19 03:44:19;;;;;;;4.20;3.50;;;;;;;0.08;100.00;97913.00;6204854;28;20202;-41
2023/11/19 03:47:21;;;;;;;4.53;4.13;;;;;;;0.25;100.00;97930.31;6210287;28;20205;-39
2023/11/19 03:50:23;;;;;;;4.37;3.80;;;;;;;0.01;100.00;97886.69;6181476;28;20204;-40
2023/11/19 03:53:26;;;;;;;4.57;4.17;;;;;;;0.23;100.00;97906.88;6206386;28;20208;-40
2023/11/19 03:56:28;;;;;;;4.23;3.53;;;;;;;0.16;100.00;97895.47;6201956;28;20225;-40
2023/11/19 03:59:33;;;;;;;5.30;4.30;;;;;;;0.19;100.00;97902.16;6212990;28;20781;-40
2023/11/19 04:02:35;;;;;;;4.87;3.90;;;;;;;0.18;100.00;97892.66;6204662;28;20657;-41
2023/11/19 04:05:37;;;;;;;4.67;3.73;;;;;;;0.08;100.00;97874.53;6198121;28;20252;-39
2023/11/19 04:08:39;;;;;;;4.80;4.30;;;;;;;0.18;100.00;97890.84;6198157;28;20231;-41
2023/11/19 04:11:41;;;;;;;6.00;4.37;;;;;;;0.20;100.00;97882.84;6219519;28;20205;-39
2023/11/19 04:14:43;;;;;;;5.10;4.27;;;;;;;0.20;100.00;97869.75;6190648;28;20232;-39
2023/11/19 04:17:46;;;;;;;6.73;4.63;;;;;;;0.19;100.00;97855.81;6209652;28;20197;-39
2023/11/19 04:20:48;;;;;;;5.37;4.73;;;;;;;0.21;100.00;97855.66;6186776;28;20200;-39
2023/11/19 04:23:50;;;;;;;5.57;4.97;;;;;;;0.13;100.00;97830.31;6217343;28;20267;-39
2023/11/19 04:26:52;;;;;;;5.93;4.60;;;;;;;0.23;100.00;97851.88;6211841;28;20543;-40
2023/11/19 04:29:54;;;;;;;5.10;4.60;;;;;;;0.22;100.00;97852.84;6207051;28;20676;-40
2023/11/19 04:32:58;;;;;;;4.80;4.30;;;;;;;0.17;100.00;97836.03;6196896;28;21040;-40
2023/11/19 04:36:00;;;;;;;5.63;4.63;;;;;;;0.21;100.00;97843.38;6218694;28;20215;-41
2023/11/19 04:39:09;;;;;;;5.40;4.50;;;;;;;0.24;100.00;97845.63;6219040;28;20236;-43
2023/11/19 04:42:12;;;;;;;5.37;4.83;;;;;;;0.12;100.00;97815.59;6217747;28;20275;-39
2023/11/19 04:45:16;;;;;;;6.03;4.80;;;;;;;0.23;100.00;97838.75;6218476;28;20220;-40
2023/11/19 04:48:18;;;;;;;5.13;4.00;;;;;;;0.23;100.00;97836.16;6218540;28;20197;-39
2023/11/19 04:51:21;;;;;;;5.73;4.80;;;;;;;0.23;100.00;97832.72;6217589;28;20844;-39
2023/11/19 04:54:25;;;;;;;5.63;4.70;;;;;;;0.25;100.00;97828.13;6218639;28;20185;-39
2023/11/19 04:57:27;;;;;;;4.97;4.47;;;;;;;0.09;100.00;97800.22;6217588;28;20219;-39
2023/11/19 05:00:29;;;;;;;5.10;4.60;;;;;;;0.22;100.00;97805.72;6218380;28;20197;-39
2023/11/19 05:03:32;;;;;;;5.53;4.20;;;;;;;0.24;100.00;97811.56;6218271;28;20203;-42
2023/11/19 05:06:35;;;;;;;5.93;4.50;;;;;;;0.29;100.00;97808.44;6218047;28;20268;-41
2023/11/19 05:09:37;;;;;;;4.90;4.40;;;;;;;0.30;100.00;97807.47;6217464;28;20200;-41
2023/11/19 05:12:39;;;;;;;4.03;3.50;;;;;;;0.31;100.00;97809.09;6217700;28;20834;-40
2023/11/19 05:15:41;;;;;;;5.33;4.00;;;;;;;0.30;100.00;97807.47;6217910;28;20905;-41
2023/11/19 05:18:44;;;;;;;4.70;3.70;;;;;;;0.31;100.00;97803.03;6216231;28;20256;-39
2023/11/19 05:21:46;;;;;;;4.83;3.67;;;;;;;0.32;100.00;97800.25;6217217;28;20250;-39
2023/11/19 05:24:49;;;;;;;4.03;3.60;;;;;;;0.32;100.00;97794.19;6217362;28;20231;-40
2023/11/19 05:27:51;;;;;;;4.07;3.53;;;;;;;0.34;100.00;97786.97;6215797;28;20275;-40
2023/11/19 05:30:53;;;;;;;4.13;3.40;;;;;;;0.35;100.00;97791.22;6213527;28;20315;-40
2023/11/19 05:33:55;;;;;;;3.80;3.40;;;;;;;0.35;100.00;97791.22;6194896;28;20579;-40
2023/11/19 05:36:57;;;;;;;6.93;3.40;;;;;;;0.37;100.00;97787.44;6202383;28;20213;-39
2023/11/19 05:40:00;;;;;;;4.37;2.60;;;;;;;0.39;100.00;97782.81;6200526;28;20199;-39
2023/11/19 05:43:02;;;;;;;2.77;2.37;;;;;;;0.30;100.00;97759.50;6195728;28;20322;-40
2023/11/19 05:46:04;;;;;;;2.37;2.17;;;;;;;0.41;100.00;97777.44;6201476;28;20197;-40
2023/11/19 05:49:21;;;;;;;3.30;2.60;;;;;;;0.28;100.00;97751.78;6203267;28;20672;-40
2023/11/19 05:52:23;;;;;;;3.33;2.90;;;;;;;0.41;100.00;97762.50;6195562;28;20205;-41
2023/11/19 05:55:27;;;;;;;2.90;2.43;;;;;;;0.15;100.00;97718.34;6196296;28;20209;-40
2023/11/19 05:58:30;;;;;;;2.10;1.90;;;;;;;0.22;100.00;97723.69;6196298;28;20197;-40
2023/11/19 06:01:34;;;;;;;3.70;2.30;;;;;;;0.44;100.00;97748.22;6195086;28;20194;-40
2023/11/19 06:04:36;;;;;;;2.60;2.13;;;;;;;0.46;100.00;97759.38;6196047;28;20300;-41
2023/11/19 06:07:39;;;;;;;2.23;1.90;;;;;;;0.47;100.00;97748.69;6198093;28;20209;-39
2023/11/19 06:10:42;;;;;;;1.83;1.50;;;;;;;0.48;100.00;97760.81;6200228;28;20197;-40
2023/11/19 06:13:44;;;;;;;2.27;2.03;;;;;;;0.49;100.00;97757.22;6204608;28;20189;-40
2023/11/19 06:16:47;;;;;;;2.23;1.57;;;;;;;0.52;100.00;97754.22;6203005;28;20205;-41
2023/11/19 06:19:49;;;;;;;2.53;1.70;;;;;;;0.55;100.00;97765.38;6199308;28;20197;-40
2023/11/19 06:22:51;;;;;;;2.10;1.80;;;;;;;0.58;100.00;97751.91;6189329;28;20214;-40
2023/11/19 06:25:54;;;;;;;1.90;1.80;;;;;;;0.59;100.00;97750.91;6193487;28;20181;-41
2023/11/19 06:28:58;;;;;;;2.07;1.77;;;;;;;0.60;100.00;97755.19;6173670;28;20484;-40
2023/11/19 06:32:00;;;;;;;2.10;1.90;;;;;;;0.60;100.00;97744.69;6192177;28;20710;-40
2023/11/19 06:35:15;;;;;;;1.53;1.43;;;;;;;0.60;100.00;97735.00;6190345;28;20264;-39
2023/11/19 06:38:17;;;;;;;1.50;1.20;;;;;;;0.62;100.00;97738.25;6192299;28;20228;-40
2023/11/19 06:41:19;;;;;;;2.87;1.83;;;;;;;0.62;100.00;97738.25;6192144;28;20200;-41
2023/11/19 06:44:21;;;;;;;1.33;1.23;;;;;;;0.63;100.00;97729.41;6192532;28;20612;-41
2023/11/19 06:47:27;;;;;;;1.47;1.30;;;;;;;0.58;100.00;97710.78;6191950;28;20273;-39
2023/11/19 06:50:30;;;;;;;2.83;1.80;;;;;;;0.69;100.00;97722.63;6191940;28;20206;-39
2023/11/19 06:53:32;;;;;;;2.47;2.00;;;;;;;0.71;100.00;97726.72;6172132;28;20682;-39
2023/11/19 06:56:34;;;;;;;2.97;1.70;;;;;;;0.76;100.00;97718.31;6192173;28;20967;-40
2023/11/19 06:59:36;;;;;;;2.37;1.50;;;;;;;0.77;100.00;97730.44;6191745;28;20943;-41
2023/11/19 07:02:39;;;;;;;1.90;1.70;;;;;;;0.83;100.00;97726.28;6191130;28;20194;-39
2023/11/19 07:05:41;;;;;;;3.10;2.00;;;;;;;0.89;100.00;97712.47;6192056;28;20285;-40
2023/11/19 07:08:47;;;;;;;1.73;1.50;;;;;;;0.93;100.00;97713.72;6192059;28;20658;-40
2023/11/19 07:11:52;;;;;;;2.20;1.53;;;;;;;0.97;100.00;97707.13;6191365;28;20202;-40
2023/11/19 07:14:55;;;;;;;2.23;1.97;;;;;;;0.95;100.00;97678.47;6193945;28;20873;-41
2023/11/19 07:17:58;;;;;;;2.13;1.90;;;;;;;1.11;100.00;97710.75;6196556;28;20209;-42
2023/11/19 07:21:04;;;;;;;4.70;2.00;;;;;;;1.21;100.00;97701.59;6196204;28;20797;-41
2023/11/19 07:24:07;;;;;;;2.10;1.70;;;;;;;1.23;100.00;97688.28;6178980;28;20731;-42
2023/11/19 07:27:09;;;;;;;2.90;2.33;;;;;;;1.27;100.00;97697.44;6196193;28;20577;-42
2023/11/19 07:30:11;;;;;;;2.73;1.90;;;;;;;1.32;100.00;97697.69;6195021;28;20202;-41
2023/11/19 07:33:15;;;;;;;4.07;2.17;;;;;;;1.38;100.00;97685.66;6196137;28;20229;-42
2023/11/19 07:36:17;;;;;;;3.47;3.17;;;;;;;1.44;100.00;97679.69;6194796;28;20228;-41
2023/11/19 07:39:23;;;;;;;4.60;3.20;;;;;;;1.35;100.00;97644.84;6196124;28;20207;-40
2023/11/19 07:42:25;;;;;;;3.90;3.00;;;;;;;1.55;100.00;97661.66;6193681;28;20245;-42
2023/11/19 07:45:27;;;;;;;3.63;3.33;;;;;;;1.61;100.00;97670.59;6195062;28;20199;-42
2023/11/19 07:48:29;;;;;;;4.97;4.20;;;;;;;1.67;100.00;97659.34;6195360;28;20192;-41
2023/11/19 07:51:31;;;;;;;5.10;4.10;;;;;;;1.73;100.00;97657.81;6195605;28;20273;-39
2023/11/19 07:54:33;;;;;;;4.40;3.93;;;;;;;1.78;100.00;97661.50;6191722;28;20190;-40
2023/11/19 07:57:36;;;;;;;5.00;3.87;;;;;;;1.85;100.00;97660.75;6195094;28;20587;-41
2023/11/19 08:00:38;;;;;;;3.20;2.90;;;;;;;1.89;100.00;97660.19;6195042;28;20211;-43
2023/11/19 08:03:40;;;;;;;3.13;2.83;;;;;;;1.97;100.00;97664.50;6195243;28;20800;-40
2023/11/19 08:06:58;;;;;;;3.57;3.27;;;;;;;2.03;100.00;97659.31;6194040;28;20236;-39
2023/11/19 08:10:00;;;;;;;3.63;3.33;;;;;;;2.11;100.00;97666.25;6195438;28;20196;-40
2023/11/19 08:13:02;;;;;;;3.93;3.13;;;;;;;2.20;100.00;97672.19;6194559;28;20215;-42
2023/11/19 08:16:06;;;;;;;2.80;2.60;;;;;;;2.27;100.00;97676.53;6192005;28;20219;-42
2023/11/19 08:19:08;;;;;;;4.30;3.47;;;;;;;2.33;100.00;97667.06;6183657;28;20194;-39
2023/11/19 08:22:10;;;;;;;4.30;3.70;;;;;;;2.35;100.00;97666.88;6191414;28;20197;-40
2023/11/19 08:25:12;;;;;;;3.97;3.50;;;;;;;2.38;100.00;97666.50;6194532;28;20201;-39
2023/11/19 08:28:15;;;;;;;4.47;3.57;;;;;;;2.40;100.00;97657.41;6174731;28;20197;-40
2023/11/19 08:31:17;;;;;;;4.43;3.57;;;;;;;2.46;100.00;97646.13;6194354;28;20705;-39
2023/11/19 08:34:20;;;;;;;3.90;3.50;;;;;;;2.56;100.00;97651.88;6196303;28;20819;-40
2023/11/19 08:37:22;;;;;;;3.30;3.00;;;;;;;2.69;100.00;97664.28;6193978;28;20218;-40
2023/11/19 08:40:28;;;;;;;2.73;2.47;;;;;;;2.81;100.00;97661.97;6194576;28;20579;-39
2023/11/19 08:43:31;;;;;;;3.27;2.97;;;;;;;2.93;100.00;97657.78;6194395;28;20196;-40
2023/11/19 08:46:33;;;;;;;3.10;2.80;;;;;;;3.00;100.00;97657.81;6194861;28;20197;-39
2023/11/19 08:49:36;;;;;;;2.57;2.37;;;;;;;3.08;100.00;97641.88;6193875;28;20662;-40
2023/11/19 08:52:38;;;;;;;3.30;2.90;;;;;;;3.14;100.00;97651.59;6194332;28;20194;-39
2023/11/19 08:55:40;;;;;;;3.37;3.07;;;;;;;3.21;100.00;97646.38;6193802;28;20662;-40
2023/11/19 08:58:42;;;;;;;3.13;2.83;;;;;;;3.30;100.00;97646.03;6194386;28;20197;-41
2023/11/19 09:01:44;;;;;;;3.70;3.03;;;;;;;3.39;100.00;97646.66;6193736;28;20220;-41
2023/11/19 09:04:46;;;;;;;3.80;3.40;;;;;;;3.52;100.00;97656.44;6169477;28;20339;-41
2023/11/19 09:07:51;;;;;;;3.80;3.50;;;;;;;3.60;100.00;97664.97;6193760;28;20190;-41
2023/11/19 09:10:53;;;;;;;3.70;3.20;;;;;;;3.67;100.00;97648.38;6193337;28;20685;-40
2023/11/19 09:13:55;;;;;;;4.57;3.50;;;;;;;3.75;100.00;97642.94;6191311;28;20288;-39
2023/11/19 09:16:58;;;;;;;3.20;2.80;;;;;;;3.91;100.00;97639.91;6193740;28;20205;-40
2023/11/19 09:20:00;;;;;;;3.33;3.03;;;;;;;4.07;100.00;97644.00;6193747;28;20193;-42
2023/11/19 09:23:02;;;;;;;3.20;2.90;;;;;;;4.24;100.00;97632.06;6194143;28;20299;-40
2023/11/19 09:26:08;;;;;;;3.80;3.40;;;;;;;4.36;100.00;97627.78;6192121;28;20241;-40
2023/11/19 09:29:11;;;;;;;3.30;3.00;;;;;;;4.48;100.00;97627.16;6191415;28;20233;-41
2023/11/19 09:32:13;;;;;;;3.87;3.47;;;;;;;4.55;100.00;97614.78;6204411;28;20245;-40
2023/11/19 09:35:16;;;;;;;3.10;2.80;;;;;;;4.61;100.00;97613.97;6217752;28;20205;-41
2023/11/19 09:38:21;;;;;;;4.43;3.20;;;;;;;4.64;100.00;97605.66;6216823;28;20204;-42
2023/11/19 09:41:25;;;;;;;3.87;3.37;;;;;;;4.62;100.00;97586.56;6218304;28;20204;-43
2023/11/19 09:44:28;;;;;;;4.50;3.53;;;;;;;4.66;100.00;97585.13;6217757;28;20237;-42
2023/11/19 09:47:30;;;;;;;4.30;3.90;;;;;;;4.72;100.00;97586.94;6218424;28;20674;-42
2023/11/19 09:50:32;;;;;;;3.53;3.17;;;;;;;4.66;100.00;97579.84;6213905;28;20657;-42
2023/11/19 09:53:36;;;;;;;3.27;2.97;;;;;;;4.72;100.00;97567.66;6218510;28;20203;-41
2023/11/19 09:56:39;;;;;;;4.33;3.73;;;;;;;4.72;100.00;97584.31;6217996;28;20207;-41
2023/11/19 09:59:42;;;;;;;4.03;3.63;;;;;;;4.74;100.00;97586.75;6216502;28;20226;-41
2023/11/19 10:02:46;;;;;;;5.27;3.53;;;;;;;4.55;100.00;97554.13;6217752;28;20194;-40
2023/11/19 10:05:49;;;;;;;4.27;3.87;;;;;;;4.72;100.00;97575.59;6217197;28;20219;-41
2023/11/19 10:08:51;;;;;;;4.17;3.77;;;;;;;4.75;100.00;97578.63;6217877;28;20201;-40
2023/11/19 10:11:53;;;;;;;4.00;3.47;;;;;;;4.80;100.00;97583.28;6217118;28;20210;-42
2023/11/19 10:14:58;;;;;;;4.67;3.10;;;;;;;4.83;100.00;97578.41;6217443;28;20210;-43
2023/11/19 10:18:00;;;;;;;5.27;4.20;;;;;;;4.65;100.00;97554.50;6217070;28;20209;-42
2023/11/19 10:21:06;;;;;;;4.70;4.00;;;;;;;4.76;100.00;97572.31;6216166;28;20205;-41
2023/11/19 10:24:08;;;;;;;3.97;3.57;;;;;;;4.79;100.00;97565.84;6217849;28;20203;-41
2023/11/19 10:27:10;;;;;;;5.20;3.70;;;;;;;4.76;100.00;97545.13;6217537;28;20784;-42
2023/11/19 10:30:13;;;;;;;4.13;3.73;;;;;;;4.73;100.00;97535.81;6216369;28;20216;-42
2023/11/19 10:33:17;;;;;;;3.57;3.27;;;;;;;4.94;100.00;97563.75;6194786;28;20718;-43
2023/11/19 10:36:20;;;;;;;5.40;4.33;;;;;;;5.00;100.00;97549.72;6188514;28;20347;-42
2023/11/19 10:39:51;;;;;;;5.60;4.77;;;;;;;4.76;100.00;97510.81;6167747;28;20204;-42
2023/11/19 10:43:02;;;;;;;5.30;4.50;;;;;;;4.97;100.00;97538.75;6194086;28;20203;-44
2023/11/19 10:46:12;;;;;;;5.93;5.33;;;;;;;4.97;100.00;97538.75;6187259;28;20341;-41
2023/11/19 10:49:14;;;;;;;7.07;5.30;;;;;;;4.96;100.00;97534.50;6193774;28;20201;-41
2023/11/19 10:52:21;;;;;;;6.03;5.37;;;;;;;4.99;100.00;97526.97;6191471;28;20229;-41
2023/11/19 10:55:29;;;;;;;6.60;5.50;;;;;;;4.72;100.00;97496.41;6208884;28;20210;-42
2023/11/19 10:58:37;;;;;;;7.70;6.33;;;;;;;4.91;100.00;97524.56;6209825;28;20205;-41
2023/11/19 11:01:45;;;;;;;6.30;5.70;;;;;;;4.87;100.00;97518.09;6204167;28;20686;-42
2023/11/19 11:04:47;;;;;;;6.73;5.17;;;;;;;4.91;100.00;97516.66;6200004;28;20196;-40
2023/11/19 11:07:52;;;;;;;7.73;5.50;;;;;;;4.97;100.00;97515.00;6183541;28;20238;-41
2023/11/19 11:11:17;;;;;;;5.57;4.97;;;;;;;5.04;100.00;97513.97;6198771;28;20669;-40
2023/11/19 11:14:21;;;;;;;5.33;4.70;;;;;;;5.11;100.00;97503.34;6203163;28;20294;-41
2023/11/19 11:17:27;;;;;;;6.07;5.23;;;;;;;5.18;100.00;97504.97;6204247;28;20205;-41
2023/11/19 11:20:34;;;;;;;5.40;4.90;;;;;;;5.25;100.00;97504.91;6204431;28;20202;-40
2023/11/19 11:23:45;;;;;;;6.00;5.30;;;;;;;5.25;100.00;97494.34;6199847;28;20206;-40
2023/11/19 11:27:08;;;;;;;5.87;5.27;;;;;;;5.27;100.00;97496.75;6197018;28;20719;-43
2023/11/19 11:30:54;;;;;;;7.17;5.63;;;;;;;5.36;100.00;97483.09;6172583;28;20203;-42
2023/11/19 11:34:27;;;;;;;6.20;5.60;;;;;;;5.42;100.00;97484.09;6092208;29;20227;-41
2023/11/19 11:37:37;;;;;;;8.17;6.77;;;;;;;5.28;100.00;97470.16;6095895;29;21121;-42
2023/11/19 11:40:40;;;;;;;8.70;6.70;;;;;;;5.30;100.00;97485.78;6096052;29;20206;-41
2023/11/19 11:43:49;;;;;;;7.70;6.80;;;;;;;5.28;100.00;97469.34;6096620;29;20226;-42
2023/11/19 11:46:55;;;;;;;8.23;6.77;;;;;;;5.24;100.00;97466.31;6096847;29;20343;-42
2023/11/19 11:50:07;;;;;;;7.30;6.60;;;;;;;5.22;100.00;97457.81;6097192;29;20224;-41
2023/11/19 11:53:19;;;;;;;8.83;7.87;;;;;;;5.23;100.00;97458.63;6094773;29;20340;-42
2023/11/19 11:56:21;;;;;;;8.30;7.40;;;;;;;5.26;100.00;97453.69;6095625;29;20211;-41
2023/11/19 11:59:24;;;;;;;7.83;6.97;;;;;;;5.31;100.00;97448.59;6095732;29;20218;-42
2023/11/19 12:02:26;;;;;;;7.50;5.93;;;;;;;5.43;100.00;97461.94;6080546;29;20213;-43
2023/11/19 12:05:30;;;;;;;8.07;7.27;;;;;;;5.54;100.00;97469.16;6095974;29;20215;-42
2023/11/19 12:08:34;;;;;;;8.93;7.03;;;;;;;5.52;100.00;97459.84;6132351;28;20801;-42
2023/11/19 12:12:20;;;;;;;9.30;6.80;;;;;;;5.53;100.00;97440.31;6219213;28;20291;-41
2023/11/19 12:15:25;;;;;;;7.83;7.00;;;;;;;5.77;100.00;97473.88;6217997;28;20256;-42
2023/11/19 12:18:31;;;;;;;8.97;7.43;;;;;;;5.81;100.00;97475.06;6219570;28;20218;-42
2023/11/19 12:21:36;;;;;;;11.13;9.00;;;;;;;5.80;100.00;97464.69;6220053;28;20198;-41
2023/11/19 12:24:39;;;;;;;13.27;9.30;;;;;;;5.82;100.00;97460.81;6218847;28;20199;-42
2023/11/19 12:27:52;;;;;;;11.63;10.13;;;;;;;5.78;100.00;97467.56;6220586;28;20179;-42
2023/11/19 12:31:08;;;;;;;11.90;10.07;;;;;;;5.72;100.00;97470.25;6214302;28;20264;-40
2023/11/19 12:34:11;;;;;;;10.73;9.33;;;;;;;5.59;100.00;97455.31;6195181;28;20591;-40
2023/11/19 12:37:15;;;;;;;12.37;11.13;;;;;;;5.53;100.00;97450.88;6177293;28;20757;-42
2023/11/19 12:40:21;;;;;;;15.60;12.23;;;;;;;5.46;100.00;97458.84;6162429;28;20500;-42
2023/11/19 12:43:23;;;;;;;13.57;12.10;;;;;;;5.48;100.00;97461.28;6195315;28;20259;-42
2023/11/19 12:46:27;;;;;;;14.30;12.63;;;;;;;5.44;100.00;97467.00;6194809;28;20668;-42
2023/11/19 12:49:29;;;;;;;15.07;12.47;;;;;;;5.47;100.00;97452.56;6195039;28;20203;-40
2023/11/19 12:52:32;;;;;;;14.03;12.30;;;;;;;5.53;100.00;97449.06;6196951;28;20214;-40
2023/11/19 12:55:34;;;;;;;13.87;12.37;;;;;;;5.59;100.00;97457.94;6180432;28;20689;-40
2023/11/19 12:58:38;;;;;;;17.07;13.87;;;;;;;5.76;100.00;97437.88;6192027;28;20236;-43
2023/11/19 13:01:42;;;;;;;16.63;13.27;;;;;;;5.80;100.00;97427.69;6194438;28;20195;-42
2023/11/19 13:04:44;;;;;;;15.20;12.63;;;;;;;6.12;100.00;97446.94;6194700;28;20212;-42
2023/11/19 13:07:46;;;;;;;14.63;12.67;;;;;;;6.41;100.00;97438.28;6195476;28;20244;-43
2023/11/19 13:10:48;;;;;;;13.63;10.27;;;;;;;6.71;100.00;97432.25;6196337;28;20204;-43
2023/11/19 13:13:59;;;;;;;13.40;10.93;;;;;;;7.26;100.00;97434.75;6192131;28;20650;-42
2023/11/19 13:17:03;;;;;;;13.87;10.40;;;;;;;7.69;100.00;97438.97;6194009;28;20284;-44
2023/11/19 13:20:06;;;;;;;10.53;8.17;;;;;;;7.91;100.00;97436.56;6176377;28;20197;-43
2023/11/19 13:23:08;;;;;;;2.30;2.10;;;;;;;8.71;100.00;97441.22;6194313;28;20197;-42
2023/11/19 13:26:11;;;;;;;4.03;3.63;;;;;;;8.83;100.00;97425.25;6194102;28;20205;-44
2023/11/19 13:29:14;;;;;;;4.57;4.07;;;;;;;8.98;100.00;97436.97;6192830;28;20197;-43
2023/11/19 13:32:16;;;;;;;2.00;1.80;;;;;;;9.12;100.00;97421.56;6200145;28;20343;-44
2023/11/19 13:35:19;;;;;;;1.27;1.17;;;;;;;9.23;100.00;97433.16;6216537;28;20200;-46
2023/11/19 13:38:21;;;;;;;1.80;1.27;;;;;;;9.30;100.00;97426.63;6216907;28;20904;-49
2023/11/19 13:41:23;;;;;;;0.90;0.90;;;;;;;9.38;100.00;97441.41;6218762;28;20192;-48
2023/11/19 13:44:25;;;;;;;1.30;0.90;;;;;;;9.41;100.00;97422.31;6216108;28;20221;-47
2023/11/19 13:47:28;;;;;;;0.57;0.57;;;;;;;9.56;100.00;97427.09;6217060;28;20655;-45
2023/11/19 13:50:30;;;;;;;0.60;0.53;;;;;;;9.69;100.00;97432.06;6216482;28;20186;-48
2023/11/19 13:53:35;;;;;;;0.67;0.67;;;;;;;9.85;100.00;97433.09;6218284;28;20198;-48
2023/11/19 13:56:41;;;;;;;0.67;0.60;;;;;;;9.62;100.00;97431.44;6217756;28;20679;-45
2023/11/19 13:59:43;;;;;;;0.90;0.43;;;;;;;9.27;100.00;97418.34;6216710;28;20549;-45
2023/11/19 14:02:47;;;;;;;0.70;0.60;;;;;;;9.56;100.00;97427.09;6217770;28;20209;-43
2023/11/19 14:05:52;;;;;;;1.50;0.67;;;;;;;9.63;100.00;97430.38;6219387;28;20202;-45
2023/11/19 14:08:54;;;;;;;1.60;0.50;;;;;;;9.59;100.00;97426.59;6217048;28;20550;-44
2023/11/19 14:11:57;;;;;;;0.80;0.63;;;;;;;9.49;100.00;97421.09;6217778;28;20236;-46
2023/11/19 14:15:00;;;;;;;0.43;0.43;;;;;;;9.62;100.00;97426.13;6216439;28;20194;-44
2023/11/19 14:18:02;;;;;;;0.80;0.50;;;;;;;9.60;100.00;97424.72;6215757;28;20776;-44
2023/11/19 14:21:05;;;;;;;0.63;0.60;;;;;;;9.43;100.00;97412.25;6217729;28;20207;-46
2023/11/19 14:24:07;;;;;;;2.67;0.50;;;;;;;9.46;100.00;97432.25;6217736;28;20199;-46